Time;durP1;ratioP1;P1;durP2;ratioP2;P2;SDS_P1;SDS_P2;PMS_P1;PMS_P2;Temp;Humidity;BMP_temperature;BMP_pressure;BME280_temperature;BME280_humidity;BME280_pressure;Samples;Min_cycle;Max_cycle;Signal;HPM_P1;HPM_P2
2021/12/13 00:01:57;;;;;;;64.18;24.98;;;10.00;99.90;;;;;;5115125;28;20039;-71
2021/12/13 00:04:32;;;;;;;56.92;22.55;;;9.90;99.90;;;;;;5116133;28;20040;-71
2021/12/13 00:07:08;;;;;;;56.67;22.48;;;10.00;99.90;;;;;;5115935;28;20067;-71
2021/12/13 00:09:40;;;;;;;56.72;22.42;;;10.00;99.90;;;;;;5115188;28;20397;-71
2021/12/13 00:12:07;;;;;;;57.53;22.50;;;10.00;99.90;;;;;;5114711;28;20562;-71
2021/12/13 00:14:37;;;;;;;61.05;22.65;;;10.00;99.90;;;;;;5116121;28;20039;-71
2021/12/13 00:17:08;;;;;;;57.20;22.17;;;10.00;99.90;;;;;;5115519;28;20044;-71
2021/12/13 00:19:39;;;;;;;59.83;23.10;;;10.00;99.90;;;;;;5114524;28;20510;-71
2021/12/13 00:22:12;;;;;;;53.20;20.90;;;10.00;99.90;;;;;;5116420;27;20031;-71
2021/12/13 00:24:41;;;;;;;48.15;20.52;;;10.10;99.90;;;;;;5114709;28;20562;-71
2021/12/13 00:27:13;;;;;;;58.53;21.60;;;10.10;99.90;;;;;;5114860;28;20090;-71
2021/12/13 00:30:07;;;;;;;52.28;21.95;;;10.10;99.90;;;;;;5115766;28;20046;-71
2021/12/13 00:33:04;;;;;;;55.38;21.15;;;10.20;99.90;;;;;;5115790;28;20047;-71
2021/12/13 00:35:45;;;;;;;65.22;23.60;;;10.10;99.90;;;;;;5114712;28;20040;-71
2021/12/13 00:38:13;;;;;;;61.13;24.23;;;10.10;99.90;;;;;;5115518;28;20124;-71
2021/12/13 00:40:43;;;;;;;64.63;24.00;;;10.10;99.90;;;;;;5115622;28;20164;-71
2021/12/13 00:43:14;;;;;;;52.65;22.55;;;10.10;99.90;;;;;;5114703;28;20044;-71
2021/12/13 00:45:51;;;;;;;53.97;23.92;;;10.10;99.90;;;;;;5114346;28;20546;-71
2021/12/13 00:48:17;;;;;;;60.75;25.05;;;10.10;99.90;;;;;;5115443;28;20040;-71
2021/12/13 00:51:09;;;;;;;55.38;23.80;;;10.10;99.90;;;;;;5115232;27;20435;-71
2021/12/13 00:53:42;;;;;;;58.88;24.85;;;10.10;99.90;;;;;;5114203;28;20089;-71
2021/12/13 00:56:42;;;;;;;55.47;24.33;;;10.10;99.90;;;;;;5115000;28;20118;-71
2021/12/13 00:59:32;;;;;;;70.53;26.67;;;10.10;99.90;;;;;;5115138;28;20607;-71
2021/12/13 01:02:04;;;;;;;64.35;25.83;;;10.00;99.90;;;;;;5085913;28;20132;-71
2021/12/13 01:04:54;;;;;;;67.00;28.13;;;10.00;99.90;;;;;;5113817;28;20051;-71
2021/12/13 01:07:57;;;;;;;59.42;25.23;;;10.00;99.90;;;;;;5113413;28;20096;-71
2021/12/13 01:11:01;;;;;;;67.03;25.67;;;10.00;99.90;;;;;;5115508;28;20040;-71
2021/12/13 01:13:46;;;;;;;60.30;25.48;;;10.10;99.90;;;;;;5115086;28;20046;-71
2021/12/13 01:16:37;;;;;;;61.75;26.23;;;10.00;99.90;;;;;;5113666;28;20391;-71
2021/12/13 01:21:58;;;;;;;67.50;26.60;;;10.00;99.90;;;;;;5115206;27;20077;-71
2021/12/13 01:27:12;;;;;;;83.57;29.42;;;10.00;99.90;;;;;;5114196;28;20043;-71
2021/12/13 01:29:38;;;;;;;96.35;31.88;;;10.00;99.90;;;;;;5114897;28;20088;-71
2021/12/13 01:32:11;;;;;;;104.93;33.92;;;10.00;99.90;;;;;;5115138;28;20036;-71
2021/12/13 01:34:37;;;;;;;116.20;37.33;;;10.10;99.90;;;;;;5114628;28;20071;-71
2021/12/13 01:37:13;;;;;;;138.52;38.80;;;10.10;99.90;;;;;;5113921;28;20062;-71
2021/12/13 01:39:45;;;;;;;122.85;38.33;;;10.00;99.90;;;;;;5114392;28;20027;-71
2021/12/13 01:42:17;;;;;;;132.15;38.58;;;10.10;99.90;;;;;;5114386;28;20481;-71
2021/12/13 01:44:48;;;;;;;117.22;35.58;;;10.10;99.90;;;;;;5113507;28;20110;-71
2021/12/13 01:47:23;;;;;;;120.32;35.38;;;10.10;99.90;;;;;;5112833;28;20048;-71
2021/12/13 01:49:55;;;;;;;112.13;33.75;;;10.10;99.90;;;;;;5113453;28;20428;-71
2021/12/13 01:52:31;;;;;;;120.38;36.47;;;10.10;99.90;;;;;;5114561;28;20043;-71
2021/12/13 01:55:00;;;;;;;109.68;32.40;;;10.10;99.90;;;;;;5114156;28;20405;-71
2021/12/13 01:57:55;;;;;;;107.72;32.42;;;10.10;99.90;;;;;;5113608;28;20040;-71
2021/12/13 02:00:44;;;;;;;76.13;28.92;;;10.10;99.90;;;;;;5114303;28;20141;-71
2021/12/13 02:03:10;;;;;;;94.25;29.48;;;10.10;99.90;;;;;;5114449;28;20040;-71
2021/12/13 02:05:36;;;;;;;83.43;27.63;;;10.00;99.90;;;;;;5113432;28;20062;-71
2021/12/13 02:08:07;;;;;;;79.53;27.63;;;10.00;99.90;;;;;;5113887;28;20134;-71
2021/12/13 02:10:46;;;;;;;76.40;26.48;;;10.10;99.90;;;;;;5113711;28;20043;-71
2021/12/13 02:13:14;;;;;;;74.32;26.38;;;10.10;99.90;;;;;;5113816;28;20536;-71
2021/12/13 02:18:31;;;;;;;71.45;25.58;;;10.10;99.90;;;;;;5112406;28;20119;-71
2021/12/13 02:21:07;;;;;;;70.85;25.13;;;10.10;99.90;;;;;;5114151;28;20118;-71
2021/12/13 02:23:36;;;;;;;74.75;26.80;;;10.10;99.90;;;;;;5113945;28;20027;-71
2021/12/13 02:26:03;;;;;;;66.97;25.08;;;10.10;99.90;;;;;;5113444;28;20043;-71
2021/12/13 02:28:34;;;;;;;76.95;26.95;;;10.10;99.90;;;;;;5112977;28;20549;-71
2021/12/13 02:31:04;;;;;;;67.90;26.65;;;10.10;99.90;;;;;;5112347;28;20381;-71
2021/12/13 02:33:37;;;;;;;70.35;26.25;;;10.00;99.90;;;;;;5113854;28;20032;-71
2021/12/13 02:36:09;;;;;;;71.82;26.98;;;10.00;99.90;;;;;;5113708;28;20041;-71
2021/12/13 02:38:37;;;;;;;64.05;24.48;;;10.00;99.90;;;;;;5112153;28;20382;-71
2021/12/13 02:41:04;;;;;;;58.88;24.60;;;10.00;99.90;;;;;;5113785;28;20031;-71
2021/12/13 02:43:36;;;;;;;59.22;24.80;;;10.00;99.90;;;;;;5113542;28;20532;-71
2021/12/13 02:46:03;;;;;;;62.72;25.48;;;10.10;99.90;;;;;;5113416;28;20034;-71
2021/12/13 02:48:34;;;;;;;55.83;24.83;;;10.00;99.90;;;;;;5113670;28;20039;-71
2021/12/13 02:51:18;;;;;;;71.82;28.60;;;10.10;99.90;;;;;;5113713;28;20058;-71
2021/12/13 02:53:52;;;;;;;67.35;28.63;;;10.10;99.90;;;;;;5113428;28;20047;-71
2021/12/13 02:56:23;;;;;;;62.72;28.20;;;10.00;99.90;;;;;;5113440;28;20036;-71
2021/12/13 02:58:50;;;;;;;73.38;29.63;;;10.00;99.90;;;;;;5113751;28;20504;-71
2021/12/13 03:01:22;;;;;;;62.42;28.70;;;10.00;99.90;;;;;;5113375;28;20072;-71
2021/12/13 03:03:54;;;;;;;70.50;29.95;;;10.10;99.90;;;;;;5113337;28;20511;-71
2021/12/13 03:06:25;;;;;;;71.07;29.88;;;10.00;99.90;;;;;;5112995;28;20043;-71
2021/12/13 03:09:00;;;;;;;66.60;30.38;;;10.10;99.90;;;;;;5112007;28;20047;-71
2021/12/13 03:11:32;;;;;;;73.43;32.03;;;10.10;99.90;;;;;;5113557;28;20050;-71
2021/12/13 03:14:10;;;;;;;63.65;28.70;;;10.00;99.90;;;;;;5112158;28;20048;-71
2021/12/13 03:16:45;;;;;;;72.78;30.27;;;10.00;99.90;;;;;;5111646;28;20036;-71
2021/12/13 03:19:35;;;;;;;71.38;30.73;;;10.00;99.90;;;;;;5113342;28;20040;-71
2021/12/13 03:22:16;;;;;;;62.85;29.58;;;10.00;99.90;;;;;;5115742;28;20122;-71
2021/12/13 03:25:40;;;;;;;65.68;29.25;;;10.00;99.90;;;;;;5117152;28;20096;-71
2021/12/13 03:28:41;;;;;;;78.40;32.90;;;9.90;99.90;;;;;;5000838;28;20049;-71
2021/12/13 03:31:12;;;;;;;73.07;31.83;;;9.90;99.90;;;;;;5117541;27;20088;-71
2021/12/13 03:33:54;;;;;;;76.32;33.20;;;9.90;99.90;;;;;;5117119;28;20055;-71
2021/12/13 03:36:24;;;;;;;67.53;28.52;;;9.90;99.90;;;;;;5116602;28;20045;-71
2021/12/13 03:38:54;;;;;;;70.78;28.30;;;9.90;99.90;;;;;;5116754;28;20047;-71
2021/12/13 03:41:24;;;;;;;61.78;27.02;;;9.90;99.90;;;;;;5116897;28;20097;-71
2021/12/13 03:43:55;;;;;;;65.35;27.70;;;9.90;99.90;;;;;;5116637;28;20043;-71
2021/12/13 03:46:24;;;;;;;52.70;23.80;;;9.90;99.90;;;;;;5116362;28;20126;-71
2021/12/13 03:48:52;;;;;;;60.65;26.63;;;9.90;99.90;;;;;;5116948;28;20073;-71
2021/12/13 03:51:24;;;;;;;63.13;24.80;;;9.90;99.90;;;;;;5116557;28;20075;-71
2021/12/13 03:53:52;;;;;;;57.08;23.08;;;9.90;99.90;;;;;;5116889;28;20027;-71
2021/12/13 03:56:39;;;;;;;52.67;23.15;;;9.80;99.90;;;;;;5114936;28;20039;-71
2021/12/13 03:59:09;;;;;;;50.17;22.75;;;9.80;99.90;;;;;;5116674;28;20043;-71
2021/12/13 04:01:42;;;;;;;45.95;20.58;;;9.80;99.90;;;;;;5115520;28;20481;-71
2021/12/13 04:04:17;;;;;;;53.10;21.40;;;9.90;99.90;;;;;;5116153;28;20434;-71
2021/12/13 04:06:50;;;;;;;51.13;20.92;;;9.80;99.90;;;;;;5116101;28;20487;-71
2021/12/13 04:09:17;;;;;;;41.90;19.13;;;9.80;99.90;;;;;;5116408;28;20054;-71
2021/12/13 04:11:45;;;;;;;52.05;20.38;;;9.80;99.90;;;;;;5114998;28;20111;-71
2021/12/13 04:14:23;;;;;;;46.97;20.00;;;9.90;99.90;;;;;;5116198;28;20185;-71
2021/12/13 04:17:19;;;;;;;49.15;20.67;;;9.80;99.90;;;;;;5115559;28;20486;-71
2021/12/13 04:19:58;;;;;;;38.33;17.67;;;9.80;99.90;;;;;;5116211;28;20043;-71
2021/12/13 04:22:36;;;;;;;43.15;18.38;;;9.80;99.90;;;;;;5116468;28;20106;-71
2021/12/13 04:25:13;;;;;;;42.72;18.50;;;9.80;99.90;;;;;;5115150;28;20039;-71
2021/12/13 04:27:48;;;;;;;40.63;17.08;;;9.80;99.90;;;;;;5115500;28;20404;-71
2021/12/13 04:30:20;;;;;;;31.40;15.98;;;9.70;99.90;;;;;;5114674;28;20043;-71
2021/12/13 04:32:51;;;;;;;33.13;15.05;;;9.70;99.90;;;;;;5115546;28;20036;-71
2021/12/13 04:35:17;;;;;;;25.20;12.45;;;9.60;99.90;;;;;;5114891;28;20039;-71
2021/12/13 04:37:48;;;;;;;26.13;12.30;;;9.70;99.90;;;;;;5115756;28;20035;-71
2021/12/13 04:40:24;;;;;;;20.63;11.27;;;9.70;99.90;;;;;;5115702;27;20036;-71
2021/12/13 04:43:09;;;;;;;24.73;10.88;;;9.60;99.90;;;;;;5115866;28;20170;-71
2021/12/13 04:45:41;;;;;;;26.27;10.35;;;9.60;99.90;;;;;;5115265;28;20036;-71
2021/12/13 04:48:14;;;;;;;26.33;10.57;;;9.60;99.90;;;;;;5115310;28;20051;-71
2021/12/13 04:50:46;;;;;;;;;;;9.60;99.90;;;;;;5115915;28;20477;-71
2021/12/13 04:53:28;;;;;;;14.88;8.05;;;9.60;99.90;;;;;;5114081;28;19922;-71
2021/12/13 04:55:56;;;;;;;14.50;7.63;;;9.50;99.90;;;;;;5115408;28;20032;-72
2021/12/13 04:58:23;;;;;;;17.60;8.00;;;9.50;99.90;;;;;;5113950;28;20390;-72
2021/12/13 05:00:54;;;;;;;11.93;6.13;;;9.50;99.90;;;;;;5115307;28;20044;-72
2021/12/13 05:03:25;;;;;;;12.20;6.72;;;9.60;99.90;;;;;;5115456;28;20401;-71
2021/12/13 05:05:51;;;;;;;16.40;6.10;;;9.60;99.90;;;;;;5114834;28;20084;-72
2021/12/13 05:08:19;;;;;;;16.25;6.10;;;9.50;99.90;;;;;;5115195;28;20426;-72
2021/12/13 05:10:48;;;;;;;18.15;6.43;;;9.50;99.90;;;;;;5114940;28;20040;-72
2021/12/13 05:13:17;;;;;;;19.30;7.25;;;9.50;99.90;;;;;;5114774;28;20036;-72
2021/12/13 05:15:58;;;;;;;16.65;7.10;;;9.50;99.90;;;;;;5114748;28;20036;-72
2021/12/13 05:18:28;;;;;;;13.90;7.32;;;9.50;99.90;;;;;;5114863;28;20389;-72
2021/12/13 05:21:08;;;;;;;16.33;7.15;;;9.50;99.90;;;;;;5114055;28;20114;-72
2021/12/13 05:23:45;;;;;;;11.40;6.60;;;9.50;99.90;;;;;;5115193;28;20036;-71
2021/12/13 05:26:25;;;;;;;18.08;7.97;;;9.50;99.90;;;;;;5114365;28;20118;-71
2021/12/13 05:28:51;;;;;;;15.63;9.00;;;9.50;99.90;;;;;;5113308;28;20420;-72
2021/12/13 05:31:23;;;;;;;15.30;7.63;;;9.50;99.90;;;;;;5113912;28;20039;-71
2021/12/13 05:34:03;;;;;;;18.67;8.63;;;9.50;99.90;;;;;;5114736;28;20046;-71
2021/12/13 05:36:32;;;;;;;21.90;8.90;;;9.50;99.90;;;;;;5112865;28;20039;-71
2021/12/13 05:39:13;;;;;;;16.23;8.82;;;9.50;99.90;;;;;;5114475;28;20032;-71
2021/12/13 05:41:47;;;;;;;18.75;8.93;;;9.50;99.90;;;;;;5112969;28;20050;-71
2021/12/13 05:44:21;;;;;;;16.20;8.65;;;9.50;99.90;;;;;;5112690;28;20500;-71
2021/12/13 05:46:49;;;;;;;21.20;9.05;;;9.50;99.90;;;;;;5114076;28;20110;-71
2021/12/13 05:49:22;;;;;;;15.82;8.07;;;9.50;99.90;;;;;;5114162;28;20039;-71
2021/12/13 05:51:53;;;;;;;17.80;8.63;;;9.50;99.90;;;;;;5113338;28;20079;-71
2021/12/13 05:54:29;;;;;;;16.63;9.02;;;9.40;99.90;;;;;;5114211;28;20040;-71
2021/12/13 05:57:10;;;;;;;18.48;8.55;;;9.40;99.90;;;;;;5112413;28;20046;-71
2021/12/13 05:59:50;;;;;;;16.45;9.05;;;9.50;99.90;;;;;;5114143;28;20039;-71
2021/12/13 06:02:30;;;;;;;17.20;8.27;;;9.40;99.90;;;;;;5114000;28;20064;-71
2021/12/13 06:05:28;;;;;;;16.80;9.32;;;9.40;99.90;;;;;;5114103;28;20121;-71
2021/12/13 06:07:57;;;;;;;19.42;8.88;;;9.40;99.90;;;;;;5079355;28;20043;-71
2021/12/13 06:10:26;;;;;;;16.10;9.10;;;9.40;99.90;;;;;;5114276;27;20039;-71
2021/12/13 06:12:59;;;;;;;17.58;9.80;;;9.40;99.90;;;;;;5112843;28;20040;-71
2021/12/13 06:15:30;;;;;;;25.20;10.80;;;9.40;99.90;;;;;;5112660;28;20389;-71
2021/12/13 06:18:13;;;;;;;20.30;11.60;;;9.40;99.90;;;;;;5113694;28;20039;-71
2021/12/13 06:20:47;;;;;;;20.05;10.15;;;9.40;99.90;;;;;;5114025;28;20409;-71
2021/12/13 06:23:15;;;;;;;;;;;9.40;99.90;;;;;;5113527;28;20469;-71
2021/12/13 06:25:44;;;;;;;22.75;10.10;;;9.40;99.90;;;;;;5111960;28;20384;-72
2021/12/13 06:28:23;;;;;;;15.98;9.85;;;9.40;99.90;;;;;;5113697;28;20054;-71
2021/12/13 06:31:00;;;;;;;24.38;11.20;;;9.40;99.90;;;;;;5113991;28;20042;-71
2021/12/13 06:33:26;;;;;;;18.48;10.50;;;9.40;99.90;;;;;;5113596;28;20116;-71
2021/12/13 06:35:56;;;;;;;22.10;10.77;;;9.40;99.90;;;;;;5113202;28;20039;-71
2021/12/13 06:38:42;;;;;;;24.02;11.25;;;9.40;99.90;;;;;;5112725;28;20536;-71
2021/12/13 06:41:18;;;;;;;26.40;11.00;;;9.40;99.90;;;;;;5112412;28;20043;-71
2021/12/13 06:43:54;;;;;;;18.98;10.20;;;9.40;99.90;;;;;;5112235;28;20097;-71
2021/12/13 06:46:23;;;;;;;23.25;11.00;;;9.40;99.90;;;;;;5095209;28;20070;-71
2021/12/13 06:48:59;;;;;;;17.45;10.55;;;9.30;99.90;;;;;;5113625;28;20039;-72
2021/12/13 06:51:40;;;;;;;22.50;11.45;;;9.30;99.90;;;;;;5113562;28;20043;-71
2021/12/13 06:54:32;;;;;;;21.98;11.07;;;9.30;99.90;;;;;;5112373;28;20073;-71
2021/12/13 06:57:06;;;;;;;21.25;10.63;;;9.30;99.90;;;;;;5117169;28;20119;-71
2021/12/13 06:59:38;;;;;;;19.55;10.68;;;9.30;99.90;;;;;;5117660;28;20063;-71
2021/12/13 07:02:10;;;;;;;19.50;10.07;;;9.30;99.90;;;;;;5117670;28;20114;-71
2021/12/13 07:05:01;;;;;;;17.90;11.65;;;9.30;99.90;;;;;;5117456;28;20058;-71
2021/12/13 07:07:50;;;;;;;23.25;12.60;;;9.30;99.90;;;;;;5106361;28;20051;-71
2021/12/13 07:10:36;;;;;;;18.50;11.02;;;9.30;99.90;;;;;;5117411;28;20035;-72
2021/12/13 07:13:08;;;;;;;25.65;12.50;;;9.40;99.90;;;;;;5116298;28;20032;-72
2021/12/13 07:15:45;;;;;;;23.17;12.15;;;9.30;99.90;;;;;;5115667;28;20055;-72
2021/12/13 07:18:16;;;;;;;23.00;12.25;;;9.30;99.90;;;;;;5115893;28;20048;-72
2021/12/13 07:20:53;;;;;;;17.98;11.25;;;9.30;99.90;;;;;;5117242;28;20036;-72
2021/12/13 07:23:19;;;;;;;23.70;12.38;;;9.30;99.90;;;;;;5115732;28;20046;-71
2021/12/13 07:25:47;;;;;;;25.65;13.75;;;9.30;99.90;;;;;;5115253;28;20047;-71
2021/12/13 07:28:31;;;;;;;20.63;11.98;;;9.30;99.90;;;;;;5116779;28;20492;-71
2021/12/13 07:30:57;;;;;;;22.58;11.82;;;9.30;99.90;;;;;;5117045;27;20084;-72
2021/12/13 07:33:44;;;;;;;24.48;12.55;;;9.30;99.90;;;;;;5117063;28;20118;-72
2021/12/13 07:36:26;;;;;;;20.02;11.38;;;9.30;99.90;;;;;;5116511;28;20140;-71
2021/12/13 07:38:57;;;;;;;20.13;11.75;;;9.30;99.90;;;;;;5115626;28;20068;-72
2021/12/13 07:41:25;;;;;;;23.40;12.80;;;9.30;99.90;;;;;;5115601;28;20051;-70
2021/12/13 07:43:51;;;;;;;22.55;13.15;;;9.30;99.90;;;;;;5116964;28;20046;-71
2021/12/13 07:46:20;;;;;;;26.10;13.48;;;9.40;99.90;;;;;;5114957;28;20036;-71
2021/12/13 07:48:45;;;;;;;28.48;13.73;;;9.30;99.90;;;;;;5115187;28;20043;-71
2021/12/13 07:51:28;;;;;;;21.00;11.98;;;9.30;99.90;;;;;;5121662;27;20042;-71
2021/12/13 07:54:05;;;;;;;21.20;14.02;;;9.30;99.90;;;;;;5124949;27;20051;-71
2021/12/13 07:56:41;;;;;;;23.15;14.05;;;9.30;99.90;;;;;;5125487;27;20039;-71
2021/12/13 07:59:21;;;;;;;23.73;13.80;;;9.30;99.90;;;;;;5125642;27;20065;-71
2021/12/13 08:01:51;;;;;;;25.27;13.65;;;9.30;99.90;;;;;;5123866;27;20031;-71
2021/12/13 08:04:22;;;;;;;24.83;14.27;;;9.30;99.90;;;;;;5126647;27;20061;-71
2021/12/13 08:07:10;;;;;;;27.23;14.95;;;9.30;99.90;;;;;;5122750;27;20496;-71
2021/12/13 08:10:01;;;;;;;28.80;16.30;;;9.40;99.90;;;;;;5107948;28;20622;-71
2021/12/13 08:12:36;;;;;;;28.23;16.17;;;9.30;99.90;;;;;;5116266;28;20462;-71
2021/12/13 08:15:17;;;;;;;28.42;16.52;;;9.30;99.90;;;;;;5115979;28;20075;-71
2021/12/13 08:17:54;;;;;;;30.48;16.30;;;9.30;99.90;;;;;;5114201;28;20050;-71
2021/12/13 08:20:34;;;;;;;34.95;18.98;;;9.30;99.90;;;;;;5115969;28;20039;-71
2021/12/13 08:23:03;;;;;;;27.50;17.45;;;9.30;99.90;;;;;;5115883;28;20051;-71
2021/12/13 08:25:33;;;;;;;31.08;18.05;;;9.30;99.90;;;;;;5115838;28;20092;-71
2021/12/13 08:28:05;;;;;;;36.03;20.02;;;9.40;99.90;;;;;;5116254;28;20128;-71
2021/12/13 08:30:53;;;;;;;35.13;18.33;;;9.30;99.90;;;;;;5115842;28;20044;-70
2021/12/13 08:33:41;;;;;;;29.15;17.80;;;9.40;99.90;;;;;;5115972;28;20042;-71
2021/12/13 08:36:28;;;;;;;32.45;19.27;;;9.40;99.90;;;;;;5115595;28;20176;-70
2021/12/13 08:39:09;;;;;;;34.65;18.98;;;9.40;99.90;;;;;;5115362;28;20087;-71
2021/12/13 08:41:39;;;;;;;33.17;19.33;;;9.40;99.90;;;;;;5097432;28;20442;-71
2021/12/13 08:44:15;;;;;;;38.67;21.50;;;9.30;99.90;;;;;;5114549;28;20081;-71
2021/12/13 08:47:00;;;;;;;32.22;19.33;;;9.40;99.90;;;;;;5114097;28;20389;-71
2021/12/13 08:49:31;;;;;;;36.00;21.35;;;9.40;99.90;;;;;;5115872;28;20043;-71
2021/12/13 08:52:15;;;;;;;34.42;20.70;;;9.40;99.90;;;;;;5123308;27;20091;-72
2021/12/13 08:55:13;;;;;;;34.25;21.40;;;9.40;99.90;;;;;;5121255;27;20050;-71
2021/12/13 08:57:47;;;;;;;39.50;23.17;;;9.40;99.90;;;;;;5082536;28;20051;-71
2021/12/13 09:00:13;;;;;;;37.55;22.80;;;9.40;99.90;;;;;;5115344;28;20028;-71
2021/12/13 09:02:44;;;;;;;36.50;22.58;;;9.40;99.90;;;;;;5114593;28;20550;-71
2021/12/13 09:05:17;;;;;;;38.78;21.75;;;9.50;99.90;;;;;;5115337;28;20036;-71
2021/12/13 09:08:08;;;;;;;46.88;25.25;;;9.50;99.90;;;;;;5113375;28;20424;-71
2021/12/13 09:10:45;;;;;;;40.65;22.92;;;9.50;99.90;;;;;;5104025;28;20142;-70
2021/12/13 09:13:13;;;;;;;42.65;24.80;;;9.50;99.90;;;;;;5113664;28;20540;-71
2021/12/13 09:15:39;;;;;;;40.20;24.30;;;9.50;99.90;;;;;;5114609;28;20044;-71
2021/12/13 09:18:08;;;;;;;43.88;26.70;;;9.50;99.90;;;;;;5114385;27;20051;-71
2021/12/13 09:20:42;;;;;;;43.15;25.77;;;9.50;99.90;;;;;;5114755;28;20047;-71
2021/12/13 09:23:11;;;;;;;;;;;9.60;99.90;;;;;;5115237;28;20054;-71
2021/12/13 09:26:08;;;;;;;40.95;23.67;;;9.50;99.90;;;;;;5114497;28;19984;-71
2021/12/13 09:28:54;;;;;;;40.15;24.42;;;9.50;99.90;;;;;;5096270;28;20109;-71
2021/12/13 09:31:33;;;;;;;45.55;25.13;;;9.60;99.90;;;;;;5114750;28;20047;-70
2021/12/13 09:34:21;;;;;;;46.33;24.50;;;9.60;99.90;;;;;;5113244;28;20161;-70
2021/12/13 09:36:51;;;;;;;39.92;25.10;;;9.60;99.90;;;;;;5112428;28;20537;-71
2021/12/13 09:39:29;;;;;;;45.63;26.08;;;9.70;99.90;;;;;;5114402;27;20039;-70
2021/12/13 09:42:00;;;;;;;41.70;24.92;;;9.70;99.90;;;;;;5114335;28;20168;-71
2021/12/13 09:44:44;;;;;;;37.90;23.17;;;9.70;99.90;;;;;;5113015;28;20043;-71
2021/12/13 09:47:16;;;;;;;44.47;26.38;;;9.70;99.90;;;;;;5112625;28;20054;-71
2021/12/13 09:49:46;;;;;;;42.42;25.13;;;9.70;99.90;;;;;;5114654;28;20039;-71
2021/12/13 09:52:14;;;;;;;37.25;23.20;;;9.80;99.90;;;;;;5114318;28;20120;-70
2021/12/13 09:54:52;;;;;;;39.65;24.80;;;9.80;99.90;;;;;;5113092;28;20169;-70
2021/12/13 09:57:27;;;;;;;41.53;24.23;;;9.80;99.90;;;;;;5113793;28;20043;-70
2021/12/13 09:59:55;;;;;;;35.80;23.83;;;9.80;99.90;;;;;;5115539;27;20047;-71
2021/12/13 10:02:35;;;;;;;41.25;24.98;;;9.80;99.90;;;;;;5124212;27;20084;-71
2021/12/13 10:05:10;;;;;;;37.97;24.25;;;9.80;99.90;;;;;;5126145;27;20265;-71
2021/12/13 10:07:40;;;;;;;32.42;22.20;;;9.80;99.90;;;;;;5122554;27;20063;-71
2021/12/13 10:10:11;;;;;;;36.03;22.50;;;9.80;99.90;;;;;;5132301;27;20046;-71
2021/12/13 10:12:44;;;;;;;42.72;24.38;;;9.80;99.90;;;;;;5126378;27;20050;-71
2021/12/13 10:15:19;;;;;;;32.83;21.80;;;9.80;99.90;;;;;;5125504;27;20078;-71
2021/12/13 10:17:49;;;;;;;36.00;21.95;;;9.80;99.90;;;;;;5113328;28;20044;-71
2021/12/13 10:20:29;;;;;;;36.70;22.50;;;9.90;99.90;;;;;;5119033;28;20031;-71
2021/12/13 10:22:56;;;;;;;35.50;22.70;;;9.90;99.90;;;;;;5134722;27;20488;-71
2021/12/13 10:25:29;;;;;;;36.78;23.13;;;9.90;99.90;;;;;;5134201;27;20046;-70
2021/12/13 10:27:55;;;;;;;34.85;21.70;;;9.90;99.90;;;;;;5130617;27;20491;-70
2021/12/13 10:30:26;;;;;;;35.88;20.42;;;9.90;99.90;;;;;;5121958;28;20042;-70
2021/12/13 10:32:53;;;;;;;28.35;19.98;;;9.80;99.90;;;;;;5123386;27;20031;-71
2021/12/13 10:35:24;;;;;;;37.00;19.58;;;9.90;99.90;;;;;;5121531;27;20039;-71
2021/12/13 10:37:58;;;;;;;35.50;21.08;;;9.90;99.90;;;;;;5119348;28;20519;-70
2021/12/13 10:40:38;;;;;;;31.48;20.02;;;9.90;99.90;;;;;;5122237;27;20229;-70
2021/12/13 10:43:17;;;;;;;28.65;20.33;;;9.80;99.90;;;;;;5122474;27;21440;-70
2021/12/13 10:45:51;;;;;;;26.73;19.45;;;9.90;99.90;;;;;;5124264;28;20050;-71
2021/12/13 10:48:19;;;;;;;33.67;19.63;;;9.90;99.90;;;;;;5113272;28;20404;-70
2021/12/13 10:50:58;;;;;;;28.92;19.23;;;9.90;99.90;;;;;;5112411;28;20044;-70
2021/12/13 10:53:26;;;;;;;29.52;19.38;;;9.90;99.90;;;;;;5113632;28;20035;-71
2021/12/13 10:56:01;;;;;;;33.80;20.27;;;9.90;99.90;;;;;;5113172;28;20512;-71
2021/12/13 10:58:31;;;;;;;31.73;19.85;;;9.90;99.90;;;;;;5113665;28;20384;-71
2021/12/13 11:01:03;;;;;;;27.23;18.70;;;10.00;99.90;;;;;;5113784;28;20472;-71
2021/12/13 11:03:31;;;;;;;29.65;18.80;;;10.00;99.90;;;;;;5113386;28;20114;-70
2021/12/13 11:05:59;;;;;;;29.17;18.35;;;10.00;99.90;;;;;;5112804;28;20557;-71
2021/12/13 11:08:26;;;;;;;30.08;18.30;;;10.00;99.90;;;;;;5113541;28;20043;-71
2021/12/13 11:11:05;;;;;;;30.25;18.73;;;10.00;99.90;;;;;;5113499;28;20123;-71
2021/12/13 11:13:35;;;;;;;30.17;17.52;;;10.00;99.90;;;;;;5113177;28;20043;-71
2021/12/13 11:16:06;;;;;;;31.27;18.60;;;10.10;99.90;;;;;;5113195;28;20044;-71
2021/12/13 11:18:32;;;;;;;31.77;17.73;;;10.10;99.90;;;;;;5111767;28;20042;-71
2021/12/13 11:21:19;;;;;;;31.02;18.45;;;10.10;99.90;;;;;;5113186;28;20036;-71
2021/12/13 11:23:45;;;;;;;24.73;16.20;;;10.10;99.90;;;;;;5112153;28;20065;-71
2021/12/13 11:26:15;;;;;;;29.05;17.17;;;10.10;99.90;;;;;;5112189;28;20101;-72
2021/12/13 11:28:41;;;;;;;30.38;18.05;;;10.10;99.90;;;;;;5113422;28;20362;-71
2021/12/13 11:31:30;;;;;;;29.77;17.38;;;10.10;99.90;;;;;;5113881;28;20035;-72
2021/12/13 11:34:00;;;;;;;25.70;17.23;;;10.10;99.90;;;;;;5084369;28;20052;-71
2021/12/13 11:36:59;;;;;;;30.85;19.65;;;10.10;99.90;;;;;;5112899;28;20063;-72
2021/12/13 11:39:43;;;;;;;31.33;18.60;;;10.10;99.90;;;;;;5113272;28;20383;-71
2021/12/13 11:42:28;;;;;;;;;;;10.10;99.90;;;;;;5122321;27;20047;-71
2021/12/13 11:45:35;;;;;;;29.73;17.38;;;10.10;99.90;;;;;;5137162;27;19915;-69
2021/12/13 11:48:29;;;;;;;26.58;16.27;;;10.10;99.90;;;;;;5126799;27;20118;-70
2021/12/13 11:51:29;;;;;;;25.02;16.85;;;10.10;99.90;;;;;;5125882;27;20040;-69
2021/12/13 11:54:38;;;;;;;25.23;16.85;;;10.10;99.90;;;;;;5117805;27;20393;-69
2021/12/13 11:57:27;;;;;;;25.90;16.70;;;10.20;99.90;;;;;;5128173;27;20106;-69
2021/12/13 12:00:12;;;;;;;30.23;17.77;;;10.20;99.90;;;;;;5135815;27;20070;-69
2021/12/13 12:03:05;;;;;;;28.33;15.98;;;10.20;99.90;;;;;;5136770;27;20039;-71
2021/12/13 12:06:19;;;;;;;28.92;17.30;;;10.20;99.90;;;;;;5134339;27;20039;-69
2021/12/13 12:09:16;;;;;;;22.70;15.07;;;10.20;99.90;;;;;;5071808;27;20043;-71
2021/12/13 12:12:19;;;;;;;28.90;16.60;;;10.20;99.90;;;;;;5134682;27;20035;-70
2021/12/13 12:14:48;;;;;;;26.95;17.88;;;10.20;99.90;;;;;;5135137;27;20039;-68
2021/12/13 12:17:14;;;;;;;29.98;16.52;;;10.20;99.90;;;;;;5133387;27;20096;-70
2021/12/13 12:19:41;;;;;;;29.25;16.63;;;10.20;99.90;;;;;;5136604;27;20035;-68
2021/12/13 12:22:16;;;;;;;25.00;15.93;;;10.20;99.90;;;;;;5137239;27;20035;-68
2021/12/13 12:24:48;;;;;;;22.73;14.70;;;10.20;99.90;;;;;;5137148;27;20043;-68
2021/12/13 12:27:34;;;;;;;25.45;15.85;;;10.30;99.90;;;;;;5134664;27;20122;-68
2021/12/13 12:30:13;;;;;;;25.42;15.90;;;10.30;99.90;;;;;;5136516;27;20481;-69
2021/12/13 12:32:46;;;;;;;29.65;16.85;;;10.30;99.90;;;;;;5135066;27;20492;-69
2021/12/13 12:35:18;;;;;;;26.38;17.48;;;10.30;99.90;;;;;;5136342;27;20472;-70
2021/12/13 12:37:53;;;;;;;26.80;17.95;;;10.30;99.90;;;;;;5136375;27;20123;-70
2021/12/13 12:40:20;;;;;;;32.30;16.83;;;10.30;99.90;;;;;;5135047;27;20549;-70
2021/12/13 12:42:50;;;;;;;26.73;16.67;;;10.20;99.90;;;;;;5134893;27;20035;-70
2021/12/13 12:45:23;;;;;;;27.00;16.73;;;10.30;99.90;;;;;;5136084;27;20396;-70
2021/12/13 12:47:49;;;;;;;30.55;17.08;;;10.20;99.90;;;;;;5134591;27;20051;-70
2021/12/13 12:50:24;;;;;;;31.63;18.50;;;10.20;99.90;;;;;;5135887;27;20119;-70
2021/12/13 12:53:11;;;;;;;33.47;18.17;;;10.20;99.90;;;;;;5135780;27;20035;-70
2021/12/13 12:55:43;;;;;;;30.90;18.23;;;10.20;99.90;;;;;;5135597;27;20102;-71
2021/12/13 12:58:20;;;;;;;35.50;19.42;;;10.20;99.90;;;;;;5134867;27;20057;-70
2021/12/13 13:00:48;;;;;;;36.92;20.52;;;10.10;99.90;;;;;;5134797;27;20043;-70
2021/12/13 13:03:34;;;;;;;37.22;20.17;;;10.10;99.90;;;;;;5135634;27;20038;-70
2021/12/13 13:06:23;;;;;;;34.85;20.48;;;10.10;99.90;;;;;;5134698;27;20403;-70
2021/12/13 13:08:53;;;;;;;37.08;21.20;;;10.00;99.90;;;;;;5135912;27;20043;-70
2021/12/13 13:11:26;;;;;;;36.17;22.05;;;10.00;99.90;;;;;;5134446;27;20074;-70
2021/12/13 13:13:54;;;;;;;41.42;21.35;;;10.00;99.90;;;;;;5135556;27;20042;-70
2021/12/13 13:16:28;;;;;;;41.75;21.33;;;10.00;99.90;;;;;;5133782;27;20404;-70
2021/12/13 13:18:55;;;;;;;42.35;22.95;;;10.00;99.90;;;;;;5135197;27;20039;-70
2021/12/13 13:21:21;;;;;;;42.08;21.92;;;10.00;99.90;;;;;;5117359;27;20121;-70
2021/12/13 13:23:51;;;;;;;37.75;21.10;;;9.90;99.90;;;;;;5134289;27;20133;-69
2021/12/13 13:26:18;;;;;;;38.50;22.50;;;10.00;99.90;;;;;;5134936;27;20404;-69
2021/12/13 13:28:48;;;;;;;41.42;23.35;;;10.00;99.90;;;;;;5133959;27;20446;-71